Falmouth, Jamaica

5:45 AM EST on July 24, 2017 (GMT -0500)
Sangster International | | Change Station

Elev 10 ft 18.50 °N, 77.92 °W | Updated 45 minutes ago

Clear
Clear
82 °F
Feels Like 88 °F
N
6
Wind Variable Wind from SE

Today
High -- | Low -- °F
--% Chance of Precip.
Yesterday
High -- | Low -- °F
Precip. -- in
Pressure 29.95 in
Visibility 6.2 miles
Clouds Few 2200 ft
Heat Index 88 °F
Dew Point 73 °F
Humidity 74%
Rainfall 0.00 in
Snow Depth Not available.
5:45 AM 6:48 PM
New Moon, 2% visible
METAR MKJS 241000Z 13005KT 9999 FEW022 28/23 Q1014
Pressure 29.95 in
Visibility 6.2 miles
Clouds Few 2200 ft
Heat Index 88 °F
Dew Point 73 °F
Humidity 74%
Rainfall 0.00 in
Snow Depth Not available.
5:45 AM 6:48 PM
New Moon, 2% visible
METAR MKJS 241000Z 13005KT 9999 FEW022 28/23 Q1014

Get Severe Weather Alerts

Thanks for signing up!

Be on the lookout for a verification email in your inbox.

You'll start receiving the daily forecast at 6 AM.

×

10-Day Weather Forecast

No radar image for this location.
×

Almanac

Astronomy

Jul. 24, 2017 Rise Set
Actual Time
Civil Twilight
Nautical Twilight
Astronomical Twilight
Moon
Length of Visible Light
Length of Day
Tomorrow will be .
, % of the Moon is Illuminated

Today's Extremes

Country Highs Country Lows

Community

WunderPhotos

Category 6

Welcome to Category 6. This is the collective home for Weather Underground's featured writeups by Dr. Jeff Masters (right), Bob Henson (left), Chris Burt, and other regular contributors.

Nearby

Air Quality

  Air Quality AQ Index Pollutant
Not available.

Snow Depth

Station Depth Elevation

Earthquake Activity

City Distance Mag. Time & Date
Minimum magnitude displayed is 2.5.

Coastal Water Temperatures

Place Temperature

Stations

Nearby Weather Stations

Station Location Temp. Windchill Dew Point Humidity Wind Precip. Elev Updated Type